sensor_id;sensor_type;location;lat;lon;timestamp;P1;durP1;ratioP1;P2;durP2;ratioP2
66874;SDS011;53784;52.630;4.896;2023-07-13T00:01:13;6.18;;;1.23;;
66874;SDS011;53784;52.630;4.896;2023-07-13T00:03:39;6.40;;;1.27;;
66874;SDS011;53784;52.630;4.896;2023-07-13T00:06:06;6.20;;;1.33;;
66874;SDS011;53784;52.630;4.896;2023-07-13T00:08:32;5.68;;;1.50;;
66874;SDS011;53784;52.630;4.896;2023-07-13T00:11:00;7.78;;;1.42;;
66874;SDS011;53784;52.630;4.896;2023-07-13T00:13:26;7.20;;;1.58;;
66874;SDS011;53784;52.630;4.896;2023-07-13T00:15:51;8.77;;;1.73;;
66874;SDS011;53784;52.630;4.896;2023-07-13T00:18:18;8.20;;;1.70;;
66874;SDS011;53784;52.630;4.896;2023-07-13T00:20:44;12.32;;;2.20;;
66874;SDS011;53784;52.630;4.896;2023-07-13T00:23:09;12.85;;;2.30;;
66874;SDS011;53784;52.630;4.896;2023-07-13T00:25:35;10.48;;;2.00;;
66874;SDS011;53784;52.630;4.896;2023-07-13T00:28:00;13.52;;;2.53;;
66874;SDS011;53784;52.630;4.896;2023-07-13T00:30:26;11.77;;;2.47;;
66874;SDS011;53784;52.630;4.896;2023-07-13T00:32:51;13.43;;;2.72;;
66874;SDS011;53784;52.630;4.896;2023-07-13T00:35:16;12.23;;;3.08;;
66874;SDS011;53784;52.630;4.896;2023-07-13T00:37:42;17.40;;;3.15;;
66874;SDS011;53784;52.630;4.896;2023-07-13T00:40:09;11.98;;;2.90;;
66874;SDS011;53784;52.630;4.896;2023-07-13T00:42:35;15.75;;;3.55;;
66874;SDS011;53784;52.630;4.896;2023-07-13T00:45:02;15.50;;;3.22;;
66874;SDS011;53784;52.630;4.896;2023-07-13T00:47:37;12.80;;;3.10;;
66874;SDS011;53784;52.630;4.896;2023-07-13T00:50:03;14.68;;;3.15;;
66874;SDS011;53784;52.630;4.896;2023-07-13T00:52:30;15.77;;;3.28;;
66874;SDS011;53784;52.630;4.896;2023-07-13T00:54:56;20.63;;;3.58;;
66874;SDS011;53784;52.630;4.896;2023-07-13T00:57:21;15.45;;;3.15;;
66874;SDS011;53784;52.630;4.896;2023-07-13T00:59:47;16.20;;;3.08;;
66874;SDS011;53784;52.630;4.896;2023-07-13T01:02:15;17.48;;;3.40;;
66874;SDS011;53784;52.630;4.896;2023-07-13T01:04:41;9.18;;;2.38;;
66874;SDS011;53784;52.630;4.896;2023-07-13T01:07:09;14.55;;;2.97;;
66874;SDS011;53784;52.630;4.896;2023-07-13T01:09:35;14.40;;;2.70;;
66874;SDS011;53784;52.630;4.896;2023-07-13T01:12:00;16.05;;;2.80;;
66874;SDS011;53784;52.630;4.896;2023-07-13T01:14:26;12.18;;;2.50;;
66874;SDS011;53784;52.630;4.896;2023-07-13T01:16:51;12.15;;;2.22;;
66874;SDS011;53784;52.630;4.896;2023-07-13T01:22:00;10.48;;;2.15;;
66874;SDS011;53784;52.630;4.896;2023-07-13T01:24:27;8.27;;;1.77;;
66874;SDS011;53784;52.630;4.896;2023-07-13T01:26:52;8.57;;;1.70;;
66874;SDS011;53784;52.630;4.896;2023-07-13T01:29:17;10.50;;;1.73;;
66874;SDS011;53784;52.630;4.896;2023-07-13T01:31:42;6.82;;;1.58;;
66874;SDS011;53784;52.630;4.896;2023-07-13T01:34:09;5.68;;;1.27;;
66874;SDS011;53784;52.630;4.896;2023-07-13T01:36:34;5.93;;;1.40;;
66874;SDS011;53784;52.630;4.896;2023-07-13T01:39:01;6.75;;;1.50;;
66874;SDS011;53784;52.630;4.896;2023-07-13T01:41:27;7.43;;;1.73;;
66874;SDS011;53784;52.630;4.896;2023-07-13T01:43:52;7.78;;;1.63;;
66874;SDS011;53784;52.630;4.896;2023-07-13T01:46:17;5.30;;;1.40;;
66874;SDS011;53784;52.630;4.896;2023-07-13T01:48:42;7.93;;;1.60;;
66874;SDS011;53784;52.630;4.896;2023-07-13T01:51:08;5.50;;;1.50;;
66874;SDS011;53784;52.630;4.896;2023-07-13T01:53:33;4.40;;;1.40;;
66874;SDS011;53784;52.630;4.896;2023-07-13T01:55:58;5.95;;;1.50;;
66874;SDS011;53784;52.630;4.896;2023-07-13T01:58:24;6.25;;;1.50;;
66874;SDS011;53784;52.630;4.896;2023-07-13T02:00:49;8.43;;;1.45;;
66874;SDS011;53784;52.630;4.896;2023-07-13T02:03:15;9.98;;;1.90;;
66874;SDS011;53784;52.630;4.896;2023-07-13T02:05:43;8.70;;;1.90;;
66874;SDS011;53784;52.630;4.896;2023-07-13T02:08:08;10.50;;;1.60;;
66874;SDS011;53784;52.630;4.896;2023-07-13T02:10:34;9.88;;;1.80;;
66874;SDS011;53784;52.630;4.896;2023-07-13T02:12:59;10.93;;;1.90;;
66874;SDS011;53784;52.630;4.896;2023-07-13T02:15:24;7.65;;;1.60;;
66874;SDS011;53784;52.630;4.896;2023-07-13T02:17:49;7.75;;;2.00;;
66874;SDS011;53784;52.630;4.896;2023-07-13T02:20:15;7.55;;;1.63;;
66874;SDS011;53784;52.630;4.896;2023-07-13T02:22:40;7.35;;;1.85;;
66874;SDS011;53784;52.630;4.896;2023-07-13T02:25:05;10.00;;;2.17;;
66874;SDS011;53784;52.630;4.896;2023-07-13T02:27:31;8.82;;;2.00;;
66874;SDS011;53784;52.630;4.896;2023-07-13T02:29:56;6.75;;;2.20;;
66874;SDS011;53784;52.630;4.896;2023-07-13T02:32:22;8.35;;;2.42;;
66874;SDS011;53784;52.630;4.896;2023-07-13T02:34:49;6.57;;;2.20;;
66874;SDS011;53784;52.630;4.896;2023-07-13T02:37:15;9.38;;;2.00;;
66874;SDS011;53784;52.630;4.896;2023-07-13T02:39:40;7.53;;;1.75;;
66874;SDS011;53784;52.630;4.896;2023-07-13T02:42:06;10.30;;;1.88;;
66874;SDS011;53784;52.630;4.896;2023-07-13T02:44:31;9.88;;;1.98;;
66874;SDS011;53784;52.630;4.896;2023-07-13T02:46:56;9.07;;;2.10;;
66874;SDS011;53784;52.630;4.896;2023-07-13T02:49:22;8.18;;;1.85;;
66874;SDS011;53784;52.630;4.896;2023-07-13T02:51:47;9.82;;;2.15;;
66874;SDS011;53784;52.630;4.896;2023-07-13T02:54:13;9.57;;;2.15;;
66874;SDS011;53784;52.630;4.896;2023-07-13T02:56:38;6.22;;;1.70;;
66874;SDS011;53784;52.630;4.896;2023-07-13T02:59:04;8.82;;;2.10;;
66874;SDS011;53784;52.630;4.896;2023-07-13T03:01:30;8.52;;;2.10;;
66874;SDS011;53784;52.630;4.896;2023-07-13T03:03:56;8.57;;;2.10;;
66874;SDS011;53784;52.630;4.896;2023-07-13T03:06:21;9.68;;;1.88;;
66874;SDS011;53784;52.630;4.896;2023-07-13T03:08:47;11.48;;;2.50;;
66874;SDS011;53784;52.630;4.896;2023-07-13T03:11:15;11.23;;;2.17;;
66874;SDS011;53784;52.630;4.896;2023-07-13T03:13:41;9.50;;;2.00;;
66874;SDS011;53784;52.630;4.896;2023-07-13T03:16:07;8.75;;;2.10;;
66874;SDS011;53784;52.630;4.896;2023-07-13T03:18:34;10.32;;;2.00;;
66874;SDS011;53784;52.630;4.896;2023-07-13T03:21:00;8.18;;;2.15;;
66874;SDS011;53784;52.630;4.896;2023-07-13T03:23:26;11.00;;;2.50;;
66874;SDS011;53784;52.630;4.896;2023-07-13T03:26:00;11.68;;;2.67;;
66874;SDS011;53784;52.630;4.896;2023-07-13T03:28:27;10.00;;;2.28;;
66874;SDS011;53784;52.630;4.896;2023-07-13T03:30:59;11.45;;;2.70;;
66874;SDS011;53784;52.630;4.896;2023-07-13T03:33:28;7.95;;;2.35;;
66874;SDS011;53784;52.630;4.896;2023-07-13T03:35:53;13.07;;;2.78;;
66874;SDS011;53784;52.630;4.896;2023-07-13T03:38:18;10.88;;;2.47;;
66874;SDS011;53784;52.630;4.896;2023-07-13T03:40:44;8.23;;;2.20;;
66874;SDS011;53784;52.630;4.896;2023-07-13T03:43:10;11.57;;;2.40;;
66874;SDS011;53784;52.630;4.896;2023-07-13T03:45:37;9.85;;;2.20;;
66874;SDS011;53784;52.630;4.896;2023-07-13T03:48:03;6.70;;;1.90;;
66874;SDS011;53784;52.630;4.896;2023-07-13T03:50:28;11.10;;;2.20;;
66874;SDS011;53784;52.630;4.896;2023-07-13T03:52:54;9.00;;;2.00;;
66874;SDS011;53784;52.630;4.896;2023-07-13T03:55:21;12.10;;;2.30;;
66874;SDS011;53784;52.630;4.896;2023-07-13T03:57:46;8.07;;;2.00;;
66874;SDS011;53784;52.630;4.896;2023-07-13T04:00:13;12.18;;;2.33;;
66874;SDS011;53784;52.630;4.896;2023-07-13T04:02:38;8.55;;;2.42;;
66874;SDS011;53784;52.630;4.896;2023-07-13T04:05:04;11.38;;;2.28;;
66874;SDS011;53784;52.630;4.896;2023-07-13T04:07:29;10.07;;;2.30;;
66874;SDS011;53784;52.630;4.896;2023-07-13T04:09:54;10.90;;;2.20;;
66874;SDS011;53784;52.630;4.896;2023-07-13T04:12:20;10.68;;;2.33;;
66874;SDS011;53784;52.630;4.896;2023-07-13T04:14:45;9.18;;;2.13;;
66874;SDS011;53784;52.630;4.896;2023-07-13T04:17:11;11.75;;;2.42;;
66874;SDS011;53784;52.630;4.896;2023-07-13T04:19:36;9.60;;;2.40;;
66874;SDS011;53784;52.630;4.896;2023-07-13T04:22:01;14.57;;;2.80;;
66874;SDS011;53784;52.630;4.896;2023-07-13T04:24:26;11.32;;;2.40;;
66874;SDS011;53784;52.630;4.896;2023-07-13T04:26:52;8.18;;;2.38;;
66874;SDS011;53784;52.630;4.896;2023-07-13T04:29:17;8.02;;;2.00;;
66874;SDS011;53784;52.630;4.896;2023-07-13T04:31:42;8.50;;;2.05;;
66874;SDS011;53784;52.630;4.896;2023-07-13T04:34:08;9.70;;;2.22;;
66874;SDS011;53784;52.630;4.896;2023-07-13T04:36:33;11.50;;;2.33;;
66874;SDS011;53784;52.630;4.896;2023-07-13T04:39:02;11.05;;;2.38;;
66874;SDS011;53784;52.630;4.896;2023-07-13T04:41:27;7.95;;;2.35;;
66874;SDS011;53784;52.630;4.896;2023-07-13T04:43:53;10.05;;;2.42;;
66874;SDS011;53784;52.630;4.896;2023-07-13T04:46:18;10.57;;;2.00;;
66874;SDS011;53784;52.630;4.896;2023-07-13T04:48:44;9.40;;;2.00;;
66874;SDS011;53784;52.630;4.896;2023-07-13T04:51:09;7.13;;;2.22;;
66874;SDS011;53784;52.630;4.896;2023-07-13T04:53:35;8.50;;;1.70;;
66874;SDS011;53784;52.630;4.896;2023-07-13T04:56:01;9.65;;;2.10;;
66874;SDS011;53784;52.630;4.896;2023-07-13T04:58:26;9.55;;;2.05;;
66874;SDS011;53784;52.630;4.896;2023-07-13T05:00:52;6.97;;;1.88;;
66874;SDS011;53784;52.630;4.896;2023-07-13T05:03:18;7.65;;;1.88;;
66874;SDS011;53784;52.630;4.896;2023-07-13T05:05:43;8.43;;;2.40;;
66874;SDS011;53784;52.630;4.896;2023-07-13T05:08:08;9.50;;;2.53;;
66874;SDS011;53784;52.630;4.896;2023-07-13T05:10:34;9.27;;;2.20;;
66874;SDS011;53784;52.630;4.896;2023-07-13T05:13:00;9.55;;;2.42;;
66874;SDS011;53784;52.630;4.896;2023-07-13T05:15:26;10.15;;;2.20;;
66874;SDS011;53784;52.630;4.896;2023-07-13T05:17:51;10.68;;;2.20;;
66874;SDS011;53784;52.630;4.896;2023-07-13T05:20:17;6.93;;;2.00;;
66874;SDS011;53784;52.630;4.896;2023-07-13T05:22:43;9.23;;;2.28;;
66874;SDS011;53784;52.630;4.896;2023-07-13T05:25:09;8.88;;;2.15;;
66874;SDS011;53784;52.630;4.896;2023-07-13T05:27:34;8.10;;;2.15;;
66874;SDS011;53784;52.630;4.896;2023-07-13T05:30:00;9.80;;;2.00;;
66874;SDS011;53784;52.630;4.896;2023-07-13T05:32:26;12.20;;;2.33;;
66874;SDS011;53784;52.630;4.896;2023-07-13T05:34:51;12.05;;;2.63;;
66874;SDS011;53784;52.630;4.896;2023-07-13T05:37:16;10.30;;;2.35;;
66874;SDS011;53784;52.630;4.896;2023-07-13T05:39:42;9.27;;;2.15;;
66874;SDS011;53784;52.630;4.896;2023-07-13T05:42:07;9.70;;;2.10;;
66874;SDS011;53784;52.630;4.896;2023-07-13T05:44:32;10.98;;;2.42;;
66874;SDS011;53784;52.630;4.896;2023-07-13T05:46:58;13.48;;;2.53;;
66874;SDS011;53784;52.630;4.896;2023-07-13T05:49:23;10.70;;;2.42;;
66874;SDS011;53784;52.630;4.896;2023-07-13T05:51:48;9.13;;;2.30;;
66874;SDS011;53784;52.630;4.896;2023-07-13T05:54:14;8.90;;;2.20;;
66874;SDS011;53784;52.630;4.896;2023-07-13T05:56:39;11.05;;;2.53;;
66874;SDS011;53784;52.630;4.896;2023-07-13T05:59:04;9.55;;;2.50;;
66874;SDS011;53784;52.630;4.896;2023-07-13T06:01:30;11.60;;;2.30;;
66874;SDS011;53784;52.630;4.896;2023-07-13T06:03:56;8.65;;;2.25;;
66874;SDS011;53784;52.630;4.896;2023-07-13T06:06:21;9.00;;;2.20;;
66874;SDS011;53784;52.630;4.896;2023-07-13T06:08:46;11.32;;;2.88;;
66874;SDS011;53784;52.630;4.896;2023-07-13T06:11:19;10.00;;;2.58;;
66874;SDS011;53784;52.630;4.896;2023-07-13T06:13:46;8.77;;;2.63;;
66874;SDS011;53784;52.630;4.896;2023-07-13T06:16:11;9.32;;;2.75;;
66874;SDS011;53784;52.630;4.896;2023-07-13T06:18:37;8.48;;;2.47;;
66874;SDS011;53784;52.630;4.896;2023-07-13T06:21:06;8.07;;;2.10;;
66874;SDS011;53784;52.630;4.896;2023-07-13T06:23:43;8.50;;;2.40;;
66874;SDS011;53784;52.630;4.896;2023-07-13T06:26:09;7.95;;;2.22;;
66874;SDS011;53784;52.630;4.896;2023-07-13T06:28:35;9.88;;;2.33;;
66874;SDS011;53784;52.630;4.896;2023-07-13T06:31:00;6.28;;;2.30;;
66874;SDS011;53784;52.630;4.896;2023-07-13T06:33:26;8.88;;;2.10;;
66874;SDS011;53784;52.630;4.896;2023-07-13T06:35:52;9.02;;;2.20;;
66874;SDS011;53784;52.630;4.896;2023-07-13T06:38:18;7.30;;;2.20;;
66874;SDS011;53784;52.630;4.896;2023-07-13T06:40:43;8.07;;;2.00;;
66874;SDS011;53784;52.630;4.896;2023-07-13T06:43:08;9.68;;;2.50;;
66874;SDS011;53784;52.630;4.896;2023-07-13T06:45:39;10.50;;;2.15;;
66874;SDS011;53784;52.630;4.896;2023-07-13T06:48:06;8.25;;;2.30;;
66874;SDS011;53784;52.630;4.896;2023-07-13T06:50:31;10.07;;;2.17;;
66874;SDS011;53784;52.630;4.896;2023-07-13T06:52:58;11.25;;;2.30;;
66874;SDS011;53784;52.630;4.896;2023-07-13T06:55:24;7.22;;;2.20;;
66874;SDS011;53784;52.630;4.896;2023-07-13T06:57:49;12.10;;;2.40;;
66874;SDS011;53784;52.630;4.896;2023-07-13T07:00:15;6.38;;;2.15;;
66874;SDS011;53784;52.630;4.896;2023-07-13T07:02:40;6.28;;;2.05;;
66874;SDS011;53784;52.630;4.896;2023-07-13T07:05:06;7.05;;;1.98;;
66874;SDS011;53784;52.630;4.896;2023-07-13T07:07:31;5.22;;;1.80;;
66874;SDS011;53784;52.630;4.896;2023-07-13T07:09:56;5.50;;;1.90;;
66874;SDS011;53784;52.630;4.896;2023-07-13T07:12:21;5.18;;;1.60;;
66874;SDS011;53784;52.630;4.896;2023-07-13T07:14:47;5.80;;;1.90;;
66874;SDS011;53784;52.630;4.896;2023-07-13T07:17:12;4.03;;;1.55;;
66874;SDS011;53784;52.630;4.896;2023-07-13T07:19:38;4.68;;;1.50;;
66874;SDS011;53784;52.630;4.896;2023-07-13T07:22:03;3.60;;;1.40;;
66874;SDS011;53784;52.630;4.896;2023-07-13T07:24:28;6.15;;;1.40;;
66874;SDS011;53784;52.630;4.896;2023-07-13T07:26:54;4.13;;;1.35;;
66874;SDS011;53784;52.630;4.896;2023-07-13T07:29:19;4.60;;;1.60;;
66874;SDS011;53784;52.630;4.896;2023-07-13T07:31:45;4.95;;;1.40;;
66874;SDS011;53784;52.630;4.896;2023-07-13T07:34:10;6.00;;;1.63;;
66874;SDS011;53784;52.630;4.896;2023-07-13T07:36:35;4.05;;;1.30;;
66874;SDS011;53784;52.630;4.896;2023-07-13T07:39:01;5.47;;;1.50;;
66874;SDS011;53784;52.630;4.896;2023-07-13T07:41:26;5.72;;;1.30;;
66874;SDS011;53784;52.630;4.896;2023-07-13T07:43:51;6.03;;;1.60;;
66874;SDS011;53784;52.630;4.896;2023-07-13T07:46:16;7.20;;;1.70;;
66874;SDS011;53784;52.630;4.896;2023-07-13T07:48:42;6.95;;;1.60;;
66874;SDS011;53784;52.630;4.896;2023-07-13T07:51:07;6.37;;;1.70;;
66874;SDS011;53784;52.630;4.896;2023-07-13T07:53:32;4.67;;;1.70;;
66874;SDS011;53784;52.630;4.896;2023-07-13T07:55:58;6.97;;;1.70;;
66874;SDS011;53784;52.630;4.896;2023-07-13T07:58:23;6.00;;;1.70;;
66874;SDS011;53784;52.630;4.896;2023-07-13T08:00:48;5.17;;;1.60;;
66874;SDS011;53784;52.630;4.896;2023-07-13T08:03:14;3.77;;;1.20;;
66874;SDS011;53784;52.630;4.896;2023-07-13T08:05:39;4.00;;;1.50;;
66874;SDS011;53784;52.630;4.896;2023-07-13T08:08:04;4.20;;;1.50;;
66874;SDS011;53784;52.630;4.896;2023-07-13T08:10:30;5.63;;;1.38;;
66874;SDS011;53784;52.630;4.896;2023-07-13T08:12:55;5.80;;;1.63;;
66874;SDS011;53784;52.630;4.896;2023-07-13T08:15:20;6.33;;;1.90;;
66874;SDS011;53784;52.630;4.896;2023-07-13T08:17:47;5.13;;;1.50;;
66874;SDS011;53784;52.630;4.896;2023-07-13T08:20:13;5.57;;;1.70;;
66874;SDS011;53784;52.630;4.896;2023-07-13T08:22:38;5.45;;;1.73;;
66874;SDS011;53784;52.630;4.896;2023-07-13T08:25:04;6.07;;;1.60;;
66874;SDS011;53784;52.630;4.896;2023-07-13T08:27:31;5.20;;;1.70;;
66874;SDS011;53784;52.630;4.896;2023-07-13T08:29:56;5.25;;;1.65;;
66874;SDS011;53784;52.630;4.896;2023-07-13T08:32:22;4.57;;;1.60;;
66874;SDS011;53784;52.630;4.896;2023-07-13T08:34:48;4.20;;;1.83;;
66874;SDS011;53784;52.630;4.896;2023-07-13T08:37:14;4.72;;;1.52;;
66874;SDS011;53784;52.630;4.896;2023-07-13T08:39:39;3.78;;;1.42;;
66874;SDS011;53784;52.630;4.896;2023-07-13T08:42:05;5.07;;;1.48;;
66874;SDS011;53784;52.630;4.896;2023-07-13T08:44:40;5.18;;;1.52;;
66874;SDS011;53784;52.630;4.896;2023-07-13T08:47:14;4.88;;;1.48;;
66874;SDS011;53784;52.630;4.896;2023-07-13T08:49:40;3.97;;;1.80;;
66874;SDS011;53784;52.630;4.896;2023-07-13T08:54:53;8.25;;;1.90;;
66874;SDS011;53784;52.630;4.896;2023-07-13T08:57:21;5.72;;;2.10;;
66874;SDS011;53784;52.630;4.896;2023-07-13T08:59:54;6.22;;;1.83;;
66874;SDS011;53784;52.630;4.896;2023-07-13T09:02:23;6.30;;;1.80;;
66874;SDS011;53784;52.630;4.896;2023-07-13T09:05:04;4.90;;;1.88;;
66874;SDS011;53784;52.630;4.896;2023-07-13T09:10:31;4.82;;;1.90;;
66874;SDS011;53784;52.630;4.896;2023-07-13T09:15:45;7.68;;;2.38;;
66874;SDS011;53784;52.630;4.896;2023-07-13T09:18:16;6.40;;;2.30;;
66874;SDS011;53784;52.630;4.896;2023-07-13T09:20:48;5.10;;;2.13;;
66874;SDS011;53784;52.630;4.896;2023-07-13T09:23:16;6.80;;;2.40;;
66874;SDS011;53784;52.630;4.896;2023-07-13T09:25:45;5.03;;;2.28;;
66874;SDS011;53784;52.630;4.896;2023-07-13T09:30:58;6.20;;;2.63;;
66874;SDS011;53784;52.630;4.896;2023-07-13T09:33:28;6.03;;;2.75;;
66874;SDS011;53784;52.630;4.896;2023-07-13T09:35:57;7.03;;;2.70;;
66874;SDS011;53784;52.630;4.896;2023-07-13T09:38:27;7.32;;;2.80;;
66874;SDS011;53784;52.630;4.896;2023-07-13T09:46:36;6.80;;;2.80;;
66874;SDS011;53784;52.630;4.896;2023-07-13T09:49:01;5.70;;;2.70;;
66874;SDS011;53784;52.630;4.896;2023-07-13T09:51:26;6.67;;;2.83;;
66874;SDS011;53784;52.630;4.896;2023-07-13T09:53:52;6.30;;;2.60;;
66874;SDS011;53784;52.630;4.896;2023-07-13T09:58:51;6.15;;;2.42;;
66874;SDS011;53784;52.630;4.896;2023-07-13T10:01:25;6.35;;;2.50;;
66874;SDS011;53784;52.630;4.896;2023-07-13T10:03:56;6.88;;;2.90;;
66874;SDS011;53784;52.630;4.896;2023-07-13T10:06:22;6.78;;;2.83;;
66874;SDS011;53784;52.630;4.896;2023-07-13T10:08:51;5.82;;;2.95;;
66874;SDS011;53784;52.630;4.896;2023-07-13T10:11:21;5.57;;;2.90;;
66874;SDS011;53784;52.630;4.896;2023-07-13T10:16:43;6.00;;;2.97;;
66874;SDS011;53784;52.630;4.896;2023-07-13T10:19:52;5.75;;;3.10;;
66874;SDS011;53784;52.630;4.896;2023-07-13T10:22:09;7.07;;;3.20;;
66874;SDS011;53784;52.630;4.896;2023-07-13T10:24:39;5.00;;;3.22;;
66874;SDS011;53784;52.630;4.896;2023-07-13T10:27:16;5.93;;;3.40;;
66874;SDS011;53784;52.630;4.896;2023-07-13T10:29:46;6.60;;;2.88;;
66874;SDS011;53784;52.630;4.896;2023-07-13T10:32:13;5.70;;;2.70;;
66874;SDS011;53784;52.630;4.896;2023-07-13T10:34:43;6.63;;;2.80;;
66874;SDS011;53784;52.630;4.896;2023-07-13T10:37:18;6.97;;;2.70;;
66874;SDS011;53784;52.630;4.896;2023-07-13T10:39:47;5.68;;;2.85;;
66874;SDS011;53784;52.630;4.896;2023-07-13T10:42:23;6.68;;;3.00;;
66874;SDS011;53784;52.630;4.896;2023-07-13T10:44:52;7.88;;;3.13;;
66874;SDS011;53784;52.630;4.896;2023-07-13T10:47:17;7.10;;;3.10;;
66874;SDS011;53784;52.630;4.896;2023-07-13T10:49:43;5.70;;;3.15;;
66874;SDS011;53784;52.630;4.896;2023-07-13T10:55:32;6.90;;;3.40;;
66874;SDS011;53784;52.630;4.896;2023-07-13T10:58:19;7.70;;;3.60;;
66874;SDS011;53784;52.630;4.896;2023-07-13T11:00:47;5.20;;;3.50;;
66874;SDS011;53784;52.630;4.896;2023-07-13T11:03:33;7.38;;;3.50;;
66874;SDS011;53784;52.630;4.896;2023-07-13T11:06:05;5.53;;;3.40;;
66874;SDS011;53784;52.630;4.896;2023-07-13T11:08:35;6.72;;;3.65;;
66874;SDS011;53784;52.630;4.896;2023-07-13T11:18:45;5.97;;;3.60;;
66874;SDS011;53784;52.630;4.896;2023-07-13T11:21:17;5.32;;;3.65;;
66874;SDS011;53784;52.630;4.896;2023-07-13T11:23:45;7.00;;;3.70;;
66874;SDS011;53784;52.630;4.896;2023-07-13T11:31:51;5.60;;;3.35;;
66874;SDS011;53784;52.630;4.896;2023-07-13T11:34:20;6.15;;;3.15;;
66874;SDS011;53784;52.630;4.896;2023-07-13T11:36:49;6.35;;;3.00;;
66874;SDS011;53784;52.630;4.896;2023-07-13T11:39:18;6.70;;;3.00;;
66874;SDS011;53784;52.630;4.896;2023-07-13T11:41:50;4.15;;;2.70;;
66874;SDS011;53784;52.630;4.896;2023-07-13T11:44:18;6.65;;;2.80;;
66874;SDS011;53784;52.630;4.896;2023-07-13T11:46:46;6.63;;;2.97;;
66874;SDS011;53784;52.630;4.896;2023-07-13T11:49:16;6.45;;;3.00;;
66874;SDS011;53784;52.630;4.896;2023-07-13T11:51:47;5.32;;;2.60;;
66874;SDS011;53784;52.630;4.896;2023-07-13T11:56:48;5.00;;;2.53;;
66874;SDS011;53784;52.630;4.896;2023-07-13T11:59:14;5.32;;;2.63;;
66874;SDS011;53784;52.630;4.896;2023-07-13T12:01:42;6.10;;;2.40;;
66874;SDS011;53784;52.630;4.896;2023-07-13T12:04:21;4.88;;;2.42;;
66874;SDS011;53784;52.630;4.896;2023-07-13T12:06:53;6.93;;;2.50;;
66874;SDS011;53784;52.630;4.896;2023-07-13T12:09:20;4.85;;;2.35;;
66874;SDS011;53784;52.630;4.896;2023-07-13T12:11:50;6.18;;;2.60;;
66874;SDS011;53784;52.630;4.896;2023-07-13T12:14:16;7.78;;;2.80;;
66874;SDS011;53784;52.630;4.896;2023-07-13T12:16:42;8.05;;;3.00;;
66874;SDS011;53784;52.630;4.896;2023-07-13T12:19:14;6.35;;;2.50;;
66874;SDS011;53784;52.630;4.896;2023-07-13T12:21:42;5.72;;;2.38;;
66874;SDS011;53784;52.630;4.896;2023-07-13T12:24:15;5.97;;;2.30;;
66874;SDS011;53784;52.630;4.896;2023-07-13T12:26:42;5.00;;;2.20;;
66874;SDS011;53784;52.630;4.896;2023-07-13T12:29:07;5.72;;;2.40;;
66874;SDS011;53784;52.630;4.896;2023-07-13T12:31:41;4.82;;;2.20;;
66874;SDS011;53784;52.630;4.896;2023-07-13T12:34:10;5.85;;;2.33;;
66874;SDS011;53784;52.630;4.896;2023-07-13T12:36:37;7.50;;;2.40;;
66874;SDS011;53784;52.630;4.896;2023-07-13T12:44:39;6.13;;;2.22;;
66874;SDS011;53784;52.630;4.896;2023-07-13T12:47:06;6.78;;;2.20;;
66874;SDS011;53784;52.630;4.896;2023-07-13T12:49:39;5.13;;;2.10;;
66874;SDS011;53784;52.630;4.896;2023-07-13T12:52:10;5.63;;;2.00;;
66874;SDS011;53784;52.630;4.896;2023-07-13T12:54:40;6.97;;;2.10;;
66874;SDS011;53784;52.630;4.896;2023-07-13T12:57:05;6.27;;;2.23;;
66874;SDS011;53784;52.630;4.896;2023-07-13T12:59:34;5.17;;;2.10;;
66874;SDS011;53784;52.630;4.896;2023-07-13T13:02:01;6.35;;;2.20;;
66874;SDS011;53784;52.630;4.896;2023-07-13T13:04:27;7.53;;;2.20;;
66874;SDS011;53784;52.630;4.896;2023-07-13T13:07:03;5.75;;;2.08;;
66874;SDS011;53784;52.630;4.896;2023-07-13T13:09:29;5.82;;;2.22;;
66874;SDS011;53784;52.630;4.896;2023-07-13T13:11:54;6.60;;;2.33;;
66874;SDS011;53784;52.630;4.896;2023-07-13T13:14:20;5.85;;;2.10;;
66874;SDS011;53784;52.630;4.896;2023-07-13T13:16:49;6.25;;;2.20;;
66874;SDS011;53784;52.630;4.896;2023-07-13T13:19:20;7.35;;;2.00;;
66874;SDS011;53784;52.630;4.896;2023-07-13T13:21:48;7.40;;;2.40;;
66874;SDS011;53784;52.630;4.896;2023-07-13T13:24:16;6.97;;;1.95;;
66874;SDS011;53784;52.630;4.896;2023-07-13T13:26:43;8.85;;;2.20;;
66874;SDS011;53784;52.630;4.896;2023-07-13T13:29:14;8.32;;;2.20;;
66874;SDS011;53784;52.630;4.896;2023-07-13T13:31:41;6.10;;;2.00;;
66874;SDS011;53784;52.630;4.896;2023-07-13T13:34:08;6.60;;;2.00;;
66874;SDS011;53784;52.630;4.896;2023-07-13T13:36:35;7.05;;;2.05;;
66874;SDS011;53784;52.630;4.896;2023-07-13T13:39:00;6.70;;;1.92;;
66874;SDS011;53784;52.630;4.896;2023-07-13T13:41:26;7.55;;;2.10;;
66874;SDS011;53784;52.630;4.896;2023-07-13T13:43:52;7.35;;;2.05;;
66874;SDS011;53784;52.630;4.896;2023-07-13T13:46:18;9.60;;;2.20;;
66874;SDS011;53784;52.630;4.896;2023-07-13T13:48:47;6.30;;;2.00;;
66874;SDS011;53784;52.630;4.896;2023-07-13T13:51:17;10.30;;;2.25;;
66874;SDS011;53784;52.630;4.896;2023-07-13T13:53:44;6.40;;;1.90;;
66874;SDS011;53784;52.630;4.896;2023-07-13T13:56:10;5.30;;;2.03;;
66874;SDS011;53784;52.630;4.896;2023-07-13T13:58:36;6.80;;;2.10;;
66874;SDS011;53784;52.630;4.896;2023-07-13T14:01:01;6.35;;;2.10;;
66874;SDS011;53784;52.630;4.896;2023-07-13T14:03:27;8.25;;;2.00;;
66874;SDS011;53784;52.630;4.896;2023-07-13T14:05:53;6.75;;;2.03;;
66874;SDS011;53784;52.630;4.896;2023-07-13T14:08:19;6.32;;;2.00;;
66874;SDS011;53784;52.630;4.896;2023-07-13T14:10:46;6.57;;;1.83;;
66874;SDS011;53784;52.630;4.896;2023-07-13T14:13:17;7.50;;;2.40;;
66874;SDS011;53784;52.630;4.896;2023-07-13T14:15:44;6.28;;;2.10;;
66874;SDS011;53784;52.630;4.896;2023-07-13T14:18:10;6.65;;;1.90;;
66874;SDS011;53784;52.630;4.896;2023-07-13T14:20:36;7.63;;;2.22;;
66874;SDS011;53784;52.630;4.896;2023-07-13T14:23:01;6.63;;;2.00;;
66874;SDS011;53784;52.630;4.896;2023-07-13T14:25:27;5.30;;;1.90;;
66874;SDS011;53784;52.630;4.896;2023-07-13T14:27:53;5.53;;;2.13;;
66874;SDS011;53784;52.630;4.896;2023-07-13T14:30:23;5.25;;;2.10;;
66874;SDS011;53784;52.630;4.896;2023-07-13T14:32:49;6.30;;;2.13;;
66874;SDS011;53784;52.630;4.896;2023-07-13T14:35:15;4.75;;;2.03;;
66874;SDS011;53784;52.630;4.896;2023-07-13T14:37:42;5.20;;;1.90;;
66874;SDS011;53784;52.630;4.896;2023-07-13T14:40:28;4.88;;;2.00;;
66874;SDS011;53784;52.630;4.896;2023-07-13T14:42:55;6.30;;;2.28;;
66874;SDS011;53784;52.630;4.896;2023-07-13T14:45:20;7.78;;;2.28;;
66874;SDS011;53784;52.630;4.896;2023-07-13T14:47:46;5.57;;;2.50;;
66874;SDS011;53784;52.630;4.896;2023-07-13T14:50:16;9.40;;;2.38;;
66874;SDS011;53784;52.630;4.896;2023-07-13T14:52:46;7.15;;;2.30;;
66874;SDS011;53784;52.630;4.896;2023-07-13T14:55:16;5.80;;;2.17;;
66874;SDS011;53784;52.630;4.896;2023-07-13T14:57:43;7.30;;;2.20;;
66874;SDS011;53784;52.630;4.896;2023-07-13T15:02:41;7.68;;;2.13;;
66874;SDS011;53784;52.630;4.896;2023-07-13T15:05:14;6.80;;;2.30;;
66874;SDS011;53784;52.630;4.896;2023-07-13T15:07:44;6.03;;;2.15;;
66874;SDS011;53784;52.630;4.896;2023-07-13T15:10:13;4.63;;;1.70;;
66874;SDS011;53784;52.630;4.896;2023-07-13T15:12:39;5.03;;;2.00;;
66874;SDS011;53784;52.630;4.896;2023-07-13T15:15:04;6.55;;;2.35;;
66874;SDS011;53784;52.630;4.896;2023-07-13T15:17:31;6.82;;;2.45;;
66874;SDS011;53784;52.630;4.896;2023-07-13T15:20:14;5.03;;;2.20;;
66874;SDS011;53784;52.630;4.896;2023-07-13T15:22:51;7.72;;;2.10;;
66874;SDS011;53784;52.630;4.896;2023-07-13T15:25:18;6.82;;;2.42;;
66874;SDS011;53784;52.630;4.896;2023-07-13T15:27:45;7.13;;;2.67;;
66874;SDS011;53784;52.630;4.896;2023-07-13T15:30:11;7.65;;;2.40;;
66874;SDS011;53784;52.630;4.896;2023-07-13T15:32:37;6.22;;;2.65;;
66874;SDS011;53784;52.630;4.896;2023-07-13T15:35:02;7.80;;;2.60;;
66874;SDS011;53784;52.630;4.896;2023-07-13T15:37:28;7.15;;;2.38;;